createdAt,value
2022-10-14T00:01:50.585Z,13.32
2022-10-14T00:03:54.615Z,13.34
2022-10-14T00:05:57.349Z,13.35
2022-10-14T00:08:00.023Z,13.34
2022-10-14T00:10:02.757Z,13.37
2022-10-14T00:12:06.837Z,13.38
2022-10-14T00:14:13.228Z,13.39
2022-10-14T00:16:18.053Z,13.39
2022-10-14T00:18:20.617Z,13.37
2022-10-14T00:20:23.168Z,13.36
2022-10-14T00:22:26.258Z,13.38
2022-10-14T00:24:28.870Z,13.35
2022-10-14T00:26:34.441Z,13.38
2022-10-14T00:28:38.397Z,13.38
2022-10-14T00:30:41.035Z,13.34
2022-10-14T00:32:43.673Z,13.30
2022-10-14T00:34:46.233Z,13.30
2022-10-14T00:36:49.111Z,13.31
2022-10-14T00:38:52.696Z,13.38
2022-10-14T00:40:56.897Z,13.34
2022-10-14T00:42:59.468Z,13.35
2022-10-14T00:45:12.849Z,13.33
2022-10-14T00:47:15.567Z,13.31
2022-10-14T00:49:21.623Z,13.32
2022-10-14T00:51:24.397Z,13.31
2022-10-14T00:53:26.993Z,13.32
2022-10-14T00:55:30.156Z,13.29
2022-10-14T00:57:33.072Z,13.26
2022-10-14T00:59:35.934Z,13.21
2022-10-14T01:01:40.247Z,13.22
2022-10-14T01:03:44.582Z,13.23
2022-10-14T01:06:00.788Z,13.23
2022-10-14T01:08:10.173Z,13.23
2022-10-14T01:10:20.777Z,13.25
2022-10-14T01:12:33.966Z,13.25
2022-10-14T01:14:45.485Z,13.24
2022-10-14T01:16:58.551Z,13.22
2022-10-14T01:19:15.519Z,13.22
2022-10-14T01:21:23.916Z,13.23
2022-10-14T01:24:05.074Z,13.22
2022-10-14T01:26:22.567Z,13.21
2022-10-14T01:28:30.476Z,13.19
2022-10-14T01:30:37.398Z,13.19
2022-10-14T01:32:51.465Z,13.18
2022-10-14T01:35:01.698Z,13.21
2022-10-14T01:37:09.975Z,13.22
2022-10-14T01:39:19.258Z,13.23
2022-10-14T01:41:27.305Z,13.23
2022-10-14T01:43:32.978Z,13.19
2022-10-14T01:45:41.820Z,13.24
2022-10-14T01:47:45.719Z,13.21
2022-10-14T01:49:54.164Z,13.24
2022-10-14T01:52:03.544Z,13.24
2022-10-14T01:54:12.170Z,13.27
2022-10-14T01:56:18.113Z,13.25
2022-10-14T01:58:22.452Z,13.26
2022-10-14T02:00:25.025Z,13.24
2022-10-14T02:02:29.024Z,13.27
2022-10-14T02:04:31.658Z,13.25
2022-10-14T02:06:38.478Z,13.25
2022-10-14T02:08:54.737Z,13.30
2022-10-14T02:11:10.636Z,13.25
2022-10-14T02:13:38.432Z,13.23
2022-10-14T02:15:50.550Z,13.25
2022-10-14T02:17:58.683Z,13.36
2022-10-14T02:20:05.874Z,13.35
2022-10-14T02:22:16.599Z,13.31
2022-10-14T02:24:23.890Z,13.36
2022-10-14T02:26:28.285Z,13.41
2022-10-14T02:28:32.734Z,13.35
2022-10-14T02:30:39.523Z,13.35
2022-10-14T02:32:43.853Z,13.34
2022-10-14T02:34:52.032Z,13.44
2022-10-14T02:36:56.513Z,13.36
2022-10-14T02:39:02.001Z,13.35
2022-10-14T02:41:08.772Z,13.35
2022-10-14T02:43:11.914Z,13.34
2022-10-14T02:45:16.720Z,13.34
2022-10-14T02:47:19.321Z,13.35
2022-10-14T02:49:22.088Z,13.37
2022-10-14T02:51:26.128Z,13.37
2022-10-14T02:53:28.749Z,13.35
2022-10-14T02:55:31.397Z,13.36
2022-10-14T02:57:34.047Z,13.34
2022-10-14T02:59:36.705Z,13.34
2022-10-14T03:01:39.324Z,13.33
2022-10-14T03:03:41.993Z,13.32
2022-10-14T03:05:44.634Z,13.33
2022-10-14T03:07:48.538Z,13.32
2022-10-14T03:09:51.154Z,13.31
2022-10-14T03:11:53.839Z,13.31
2022-10-14T03:13:56.445Z,13.32
2022-10-14T03:15:59.245Z,13.32
2022-10-14T03:18:01.814Z,13.32
2022-10-14T03:20:04.736Z,13.33
2022-10-14T03:22:07.299Z,13.33
2022-10-14T03:24:11.677Z,13.30
2022-10-14T03:26:14.354Z,13.32
2022-10-14T03:28:16.979Z,13.31
2022-10-14T03:30:19.596Z,13.31
2022-10-14T03:32:24.298Z,13.33
2022-10-14T03:34:26.980Z,13.32
2022-10-14T03:36:29.591Z,13.30
2022-10-14T03:38:32.127Z,13.30
2022-10-14T03:40:36.059Z,13.31
2022-10-14T03:42:38.697Z,13.31
2022-10-14T03:44:41.321Z,13.30
2022-10-14T03:46:43.927Z,13.29
2022-10-14T03:48:46.529Z,13.30
2022-10-14T03:50:49.825Z,13.29
2022-10-14T03:52:55.561Z,13.29
2022-10-14T03:54:58.514Z,13.28
2022-10-14T03:57:02.441Z,13.25
2022-10-14T03:59:05.088Z,13.27
2022-10-14T04:01:07.686Z,13.27
2022-10-14T04:03:11.504Z,13.29
2022-10-14T04:05:14.315Z,13.29
2022-10-14T04:07:16.928Z,13.27
2022-10-14T04:09:19.513Z,13.27
2022-10-14T04:11:22.136Z,13.26
2022-10-14T04:13:26.394Z,13.23
2022-10-14T04:15:29.025Z,13.21
2022-10-14T04:17:31.683Z,13.21
2022-10-14T04:19:34.349Z,13.20
2022-10-14T04:21:36.904Z,13.18
2022-10-14T04:23:39.749Z,13.17
2022-10-14T04:25:42.285Z,13.17
2022-10-14T04:27:44.955Z,13.14
2022-10-14T04:29:48.911Z,13.16
2022-10-14T04:31:51.547Z,13.14
2022-10-14T04:33:54.085Z,13.14
2022-10-14T04:36:00.327Z,13.14
2022-10-14T04:38:02.960Z,13.15
2022-10-14T04:40:06.541Z,13.15
2022-10-14T04:42:09.158Z,13.12
2022-10-14T04:44:12.012Z,13.13
2022-10-14T04:46:15.924Z,13.13
2022-10-14T04:48:21.110Z,13.13
2022-10-14T04:50:23.736Z,13.11
2022-10-14T04:52:26.546Z,13.10
2022-10-14T04:54:29.221Z,13.10
2022-10-14T04:56:31.883Z,13.11
2022-10-14T04:58:34.546Z,13.11
2022-10-14T05:00:37.131Z,13.12
2022-10-14T05:02:41.057Z,13.12
2022-10-14T05:04:43.601Z,13.10
2022-10-14T05:06:46.191Z,13.08
2022-10-14T05:08:48.988Z,13.09
2022-10-14T05:10:52.061Z,13.08
2022-10-14T05:12:56.753Z,13.07
2022-10-14T05:14:59.485Z,13.07
2022-10-14T05:17:02.101Z,13.09
2022-10-14T05:19:06.042Z,13.09
2022-10-14T05:21:08.716Z,13.09
2022-10-14T05:23:11.835Z,13.09
2022-10-14T05:25:14.539Z,13.07
2022-10-14T05:27:17.119Z,13.08
2022-10-14T05:29:19.658Z,13.07
2022-10-14T05:31:22.256Z,13.06
2022-10-14T05:33:25.212Z,13.07
2022-10-14T05:35:53.988Z,13.07
2022-10-14T05:37:57.030Z,13.08
2022-10-14T05:40:02.085Z,13.10
2022-10-14T05:42:04.935Z,13.10
2022-10-14T05:44:07.708Z,13.10
2022-10-14T05:46:10.298Z,13.12
2022-10-14T05:48:12.901Z,13.09
2022-10-14T05:50:16.121Z,13.09
2022-10-14T05:52:20.605Z,13.10
2022-10-14T05:54:23.444Z,13.06
2022-10-14T05:56:26.186Z,13.08
2022-10-14T05:58:28.770Z,13.02
2022-10-14T06:00:31.634Z,13.02
2022-10-14T06:02:36.605Z,13.01
2022-10-14T06:04:41.029Z,13.00
2022-10-14T06:06:43.688Z,12.98
2022-10-14T06:08:47.780Z,12.99
2022-10-14T06:10:50.436Z,13.02
2022-10-14T06:12:53.029Z,13.04
2022-10-14T06:14:57.486Z,13.08
2022-10-14T06:17:00.060Z,13.10
2022-10-14T06:19:02.660Z,13.11
2022-10-14T06:21:06.333Z,13.14
2022-10-14T06:23:08.937Z,13.16
2022-10-14T06:25:12.875Z,13.18
2022-10-14T06:27:15.479Z,13.19
2022-10-14T06:29:18.314Z,13.20
2022-10-14T06:31:20.888Z,13.22
2022-10-14T06:33:23.571Z,13.24
2022-10-14T06:35:26.200Z,13.26
2022-10-14T06:37:28.826Z,13.25
2022-10-14T06:39:31.447Z,13.24
2022-10-14T06:41:35.347Z,13.27
2022-10-14T06:43:38.062Z,13.27
2022-10-14T06:45:40.611Z,13.28
2022-10-14T06:47:43.285Z,13.28
2022-10-14T06:49:45.921Z,13.27
2022-10-14T06:51:48.484Z,13.30
2022-10-14T06:53:51.020Z,13.31
2022-10-14T06:55:58.602Z,13.32
2022-10-14T06:58:02.501Z,13.36
2022-10-14T07:00:06.655Z,13.39
2022-10-14T07:02:11.963Z,13.42
2022-10-14T07:04:14.574Z,13.44
2022-10-14T07:06:17.197Z,13.45
2022-10-14T07:08:19.795Z,13.46
2022-10-14T07:10:22.396Z,13.49
2022-10-14T07:12:25.252Z,13.52
2022-10-14T07:14:29.508Z,13.54
2022-10-14T07:16:33.144Z,13.55
2022-10-14T07:18:35.764Z,13.57
2022-10-14T07:20:38.387Z,13.60
2022-10-14T07:22:41.025Z,13.64
2022-10-14T07:24:43.670Z,13.68
2022-10-14T07:26:46.265Z,13.71
2022-10-14T07:28:48.896Z,13.74
2022-10-14T07:31:00.037Z,13.80
2022-10-14T07:33:03.135Z,13.89
2022-10-14T07:35:06.733Z,13.91
2022-10-14T07:37:09.345Z,13.92
2022-10-14T07:39:11.985Z,13.93
2022-10-14T07:41:18.164Z,13.99
2022-10-14T07:43:20.745Z,14.00
2022-10-14T07:45:23.373Z,14.04
2022-10-14T07:47:27.361Z,14.06
2022-10-14T07:49:30.208Z,14.07
2022-10-14T07:51:34.372Z,14.09
2022-10-14T07:53:38.127Z,14.16
2022-10-14T07:55:51.914Z,14.23
2022-10-14T07:57:54.593Z,14.26
2022-10-14T07:59:57.466Z,14.39
2022-10-14T08:02:00.113Z,14.33
2022-10-14T08:04:04.461Z,14.40
2022-10-14T08:06:07.553Z,14.40
2022-10-14T08:08:11.016Z,14.39
2022-10-14T08:10:13.739Z,14.52
2022-10-14T08:12:16.399Z,14.52
2022-10-14T08:14:18.996Z,14.51
2022-10-14T08:16:24.053Z,14.51
2022-10-14T08:18:27.038Z,14.52
2022-10-14T08:20:30.981Z,14.55
2022-10-14T08:22:33.623Z,14.76
2022-10-14T08:24:36.234Z,14.63
2022-10-14T08:26:41.274Z,14.65
2022-10-14T08:28:43.886Z,14.64
2022-10-14T08:30:48.105Z,14.64
2022-10-14T08:32:50.722Z,14.64
2022-10-14T08:34:55.621Z,14.74
2022-10-14T08:37:01.975Z,14.82
2022-10-14T08:39:05.748Z,14.81
2022-10-14T08:41:24.274Z,14.87
2022-10-14T08:43:32.019Z,14.88
2022-10-14T08:45:40.099Z,15.09
2022-10-14T08:47:46.616Z,15.14
2022-10-14T08:49:58.593Z,15.09
2022-10-14T08:52:06.771Z,15.09
2022-10-14T08:54:15.190Z,15.17
2022-10-14T08:56:19.230Z,15.21
2022-10-14T08:58:28.442Z,15.36
2022-10-14T09:00:33.153Z,15.31
2022-10-14T09:02:40.024Z,15.41
2022-10-14T09:04:42.721Z,15.34
2022-10-14T09:06:47.853Z,15.36
2022-10-14T09:08:55.730Z,15.39
2022-10-14T09:10:58.933Z,15.59
2022-10-14T09:13:18.156Z,15.52
2022-10-14T09:15:27.579Z,15.52
2022-10-14T09:17:37.843Z,15.55
2022-10-14T09:19:47.751Z,15.51
2022-10-14T09:21:53.264Z,15.59
2022-10-14T09:24:02.637Z,15.55
2022-10-14T09:26:12.370Z,15.60
2022-10-14T09:28:15.091Z,15.63
2022-10-14T09:30:19.598Z,15.65
2022-10-14T09:32:35.483Z,15.68
2022-10-14T09:34:42.368Z,15.72
2022-10-14T09:36:45.747Z,15.80
2022-10-14T09:38:52.484Z,15.94
2022-10-14T09:40:59.771Z,15.87
2022-10-14T09:43:07.803Z,15.88
2022-10-14T09:45:13.263Z,16.03
2022-10-14T09:47:19.097Z,16.13
2022-10-14T09:49:33.780Z,16.03
2022-10-14T09:51:36.918Z,16.01
2022-10-14T09:53:45.178Z,15.99
2022-10-14T09:55:49.666Z,16.03
2022-10-14T09:58:17.254Z,16.05
2022-10-14T10:00:28.532Z,16.03
2022-10-14T10:02:41.804Z,16.04
2022-10-14T10:04:47.290Z,16.05
2022-10-14T10:06:53.938Z,16.10
2022-10-14T10:08:58.481Z,16.18
2022-10-14T10:11:06.833Z,16.21
2022-10-14T10:13:23.379Z,16.26
2022-10-14T10:15:26.456Z,16.23
2022-10-14T10:17:32.665Z,16.23
2022-10-14T10:19:37.689Z,16.26
2022-10-14T10:21:40.250Z,16.26
2022-10-14T10:23:51.949Z,16.22
2022-10-14T10:25:54.526Z,16.25
2022-10-14T10:28:00.414Z,16.23
2022-10-14T10:30:21.670Z,16.21
2022-10-14T10:32:33.710Z,16.20
2022-10-14T10:35:03.010Z,16.23
2022-10-14T10:37:15.884Z,16.21
2022-10-14T10:39:27.524Z,16.21
2022-10-14T10:41:44.510Z,16.33
2022-10-14T10:44:08.203Z,16.27
2022-10-14T10:46:29.466Z,16.28
2022-10-14T10:48:39.945Z,16.27
2022-10-14T10:50:49.462Z,16.25
2022-10-14T10:53:07.112Z,16.25
2022-10-14T10:55:19.089Z,16.24
2022-10-14T10:57:34.707Z,16.22
2022-10-14T10:59:50.295Z,16.25
2022-10-14T11:02:06.195Z,16.22
2022-10-14T11:04:25.549Z,16.26
2022-10-14T11:06:52.385Z,16.39
2022-10-14T11:09:21.616Z,16.44
2022-10-14T11:11:42.068Z,16.41
2022-10-14T11:13:52.866Z,16.25
2022-10-14T11:16:01.455Z,16.20
2022-10-14T11:18:14.376Z,16.17
2022-10-14T11:20:27.678Z,16.15
2022-10-14T11:22:45.358Z,16.22
2022-10-14T11:24:58.688Z,16.16
2022-10-14T11:27:09.457Z,16.18
2022-10-14T11:29:29.561Z,16.19
2022-10-14T11:31:40.062Z,16.22
2022-10-14T11:33:58.123Z,16.22
2022-10-14T11:36:14.398Z,16.32
2022-10-14T11:38:32.716Z,16.31
2022-10-14T11:40:40.311Z,16.33
2022-10-14T11:42:54.454Z,16.37
2022-10-14T11:45:10.948Z,16.37
2022-10-14T11:47:19.146Z,16.37
2022-10-14T11:49:27.718Z,16.40
2022-10-14T11:51:36.112Z,16.42
2022-10-14T11:53:53.304Z,16.44
2022-10-14T11:56:03.860Z,16.51
2022-10-14T11:58:11.766Z,16.56
2022-10-14T12:00:51.584Z,16.70
2022-10-14T12:02:59.567Z,16.76
2022-10-14T12:05:12.565Z,16.73
2022-10-14T12:07:19.255Z,16.88
2022-10-14T12:09:28.975Z,16.88
2022-10-14T12:11:36.834Z,16.98
2022-10-14T12:13:44.447Z,17.07
2022-10-14T12:15:51.505Z,17.06
2022-10-14T12:17:58.503Z,17.21
2022-10-14T12:20:09.518Z,17.14
2022-10-14T12:22:18.862Z,17.22
2022-10-14T12:24:28.354Z,17.11
2022-10-14T12:26:46.617Z,17.26
2022-10-14T12:28:52.842Z,17.14
2022-10-14T12:31:36.487Z,17.04
2022-10-14T12:34:17.305Z,17.06
2022-10-14T12:36:33.350Z,17.11
2022-10-14T12:38:36.310Z,17.07
2022-10-14T12:40:40.562Z,17.24
2022-10-14T12:42:58.229Z,17.15
2022-10-14T12:45:02.750Z,17.12
2022-10-14T12:47:06.276Z,16.98
2022-10-14T12:49:18.568Z,17.11
2022-10-14T12:51:23.462Z,17.02
2022-10-14T12:53:29.833Z,16.90
2022-10-14T12:55:49.940Z,16.85
2022-10-14T12:57:55.605Z,16.86
2022-10-14T13:00:01.969Z,16.88
2022-10-14T13:02:20.356Z,16.78
2022-10-14T13:04:23.443Z,16.95
2022-10-14T13:06:36.349Z,16.79
2022-10-14T13:08:40.339Z,16.71
2022-10-14T13:10:48.292Z,16.65
2022-10-14T13:12:50.894Z,16.65
2022-10-14T13:14:59.250Z,16.60
2022-10-14T13:17:02.594Z,16.57
2022-10-14T13:19:06.194Z,16.55
2022-10-14T13:21:09.572Z,16.53
2022-10-14T13:23:31.082Z,16.53
2022-10-14T13:25:35.052Z,16.53
2022-10-14T13:27:43.634Z,16.52
2022-10-14T13:30:03.225Z,16.55
2022-10-14T13:32:17.117Z,16.56
2022-10-14T13:34:35.493Z,16.54
2022-10-14T13:36:43.880Z,16.54
2022-10-14T13:38:54.788Z,16.52
2022-10-14T13:40:59.602Z,16.49
2022-10-14T13:43:07.674Z,16.45
2022-10-14T13:45:14.217Z,16.50
2022-10-14T13:47:21.649Z,16.49
2022-10-14T13:49:34.402Z,16.43
2022-10-14T13:51:45.852Z,16.38
2022-10-14T13:53:52.912Z,16.35
2022-10-14T13:55:57.510Z,16.33
2022-10-14T13:58:13.481Z,16.39
2022-10-14T14:00:43.901Z,16.34
2022-10-14T14:02:50.391Z,16.33
2022-10-14T14:04:59.833Z,16.37
2022-10-14T14:07:18.686Z,16.38
2022-10-14T14:09:27.392Z,16.54
2022-10-14T14:11:34.040Z,16.50
2022-10-14T14:13:54.537Z,16.49
2022-10-14T14:16:00.164Z,16.49
2022-10-14T14:18:02.809Z,16.44
2022-10-14T14:20:11.171Z,16.43
2022-10-14T14:22:19.013Z,16.82
2022-10-14T14:24:25.108Z,16.57
2022-10-14T14:26:38.236Z,16.67
2022-10-14T14:28:42.330Z,16.51
2022-10-14T14:30:54.608Z,16.54
2022-10-14T14:33:00.556Z,16.50
2022-10-14T14:35:05.991Z,16.43
2022-10-14T14:39:31.842Z,16.43
2022-10-14T14:41:34.520Z,16.51
2022-10-14T14:43:41.198Z,16.49
2022-10-14T14:45:51.191Z,16.47
2022-10-14T14:47:57.279Z,16.46
2022-10-14T14:50:28.615Z,16.59
2022-10-14T14:52:24.549Z,16.53
2022-10-14T14:54:28.716Z,16.50
2022-10-14T14:56:35.683Z,16.46
2022-10-14T14:58:44.147Z,16.45
2022-10-14T15:00:47.215Z,16.45
2022-10-14T15:02:58.285Z,16.46
2022-10-14T15:05:02.780Z,16.47
2022-10-14T15:07:11.273Z,16.52
2022-10-14T15:09:15.851Z,16.50
2022-10-14T15:11:19.525Z,16.45
2022-10-14T15:13:32.100Z,16.42
2022-10-14T15:15:35.436Z,16.56
2022-10-14T15:17:39.690Z,16.62
2022-10-14T15:19:43.713Z,16.53
2022-10-14T15:21:47.742Z,16.49
2022-10-14T15:24:03.089Z,16.43
2022-10-14T15:26:06.809Z,16.39
2022-10-14T15:28:30.348Z,16.33
2022-10-14T15:30:55.781Z,16.29
2022-10-14T15:33:05.108Z,16.25
2022-10-14T15:35:14.092Z,16.22
2022-10-14T15:37:16.678Z,16.17
2022-10-14T15:39:19.535Z,16.03
2022-10-14T15:41:22.167Z,16.04
2022-10-14T15:43:26.036Z,16.06
2022-10-14T15:45:28.842Z,16.04
2022-10-14T15:47:30.680Z,16.01
2022-10-14T15:49:37.039Z,16.04
2022-10-14T15:51:43.519Z,16.04
2022-10-14T15:53:46.542Z,16.02
2022-10-14T15:55:53.824Z,16.01
2022-10-14T15:57:57.252Z,15.99
2022-10-14T15:59:59.801Z,15.95
2022-10-14T16:02:04.058Z,15.93
2022-10-14T16:04:15.454Z,15.90
2022-10-14T16:06:19.248Z,15.88
2022-10-14T16:08:23.282Z,15.84
2022-10-14T16:10:29.312Z,15.84
2022-10-14T16:12:36.098Z,15.83
2022-10-14T16:14:38.662Z,15.80
2022-10-14T16:16:43.595Z,15.78
2022-10-14T16:18:46.151Z,15.73
2022-10-14T16:20:49.140Z,15.70
2022-10-14T16:22:51.864Z,15.71
2022-10-14T16:24:56.073Z,15.69
2022-10-14T16:26:58.638Z,15.66
2022-10-14T16:29:03.284Z,15.65
2022-10-14T16:31:06.212Z,15.62
2022-10-14T16:33:08.859Z,15.61
2022-10-14T16:35:11.614Z,15.62
2022-10-14T16:37:14.238Z,15.57
2022-10-14T16:39:17.678Z,15.55
2022-10-14T16:41:21.620Z,15.53
2022-10-14T16:43:24.442Z,15.53
2022-10-14T16:45:27.315Z,15.51
2022-10-14T16:47:29.889Z,15.49
2022-10-14T16:49:32.447Z,15.48
2022-10-14T16:51:35.006Z,15.47
2022-10-14T16:53:44.980Z,15.50
2022-10-14T16:55:47.727Z,15.47
2022-10-14T16:57:51.670Z,15.47
2022-10-14T16:59:54.281Z,15.46
2022-10-14T17:01:56.893Z,15.43
2022-10-14T17:04:00.126Z,15.42
2022-10-14T17:06:02.652Z,15.41
2022-10-14T17:08:05.393Z,15.37
2022-10-14T17:10:08.896Z,15.38
2022-10-14T17:12:13.812Z,15.35
2022-10-14T17:14:21.772Z,15.34
2022-10-14T17:16:24.728Z,15.31
2022-10-14T17:18:30.993Z,15.33
2022-10-14T17:20:36.346Z,15.32
2022-10-14T17:22:39.189Z,15.31
2022-10-14T17:24:41.756Z,15.28
2022-10-14T17:26:45.370Z,15.25
2022-10-14T17:28:49.039Z,15.24
2022-10-14T17:30:53.408Z,15.23
2022-10-14T17:32:56.036Z,15.22
2022-10-14T17:34:58.585Z,15.20
2022-10-14T17:37:01.302Z,15.18
2022-10-14T17:39:04.672Z,15.18
2022-10-14T17:41:09.130Z,15.17
2022-10-14T17:43:11.672Z,15.17
2022-10-14T17:45:14.306Z,15.15
2022-10-14T17:47:19.143Z,15.14
2022-10-14T17:49:21.912Z,15.12
2022-10-14T17:51:26.041Z,15.17
2022-10-14T17:53:28.937Z,15.15
2022-10-14T17:55:31.498Z,15.14
2022-10-14T17:57:34.061Z,15.13
2022-10-14T17:59:36.633Z,15.22
2022-10-14T18:04:03.910Z,15.25
2022-10-14T18:06:10.823Z,15.20
2022-10-14T18:08:14.298Z,15.19
2022-10-14T18:10:17.005Z,15.19
2022-10-14T18:12:20.188Z,15.16
2022-10-14T18:14:22.752Z,15.15
2022-10-14T18:16:27.021Z,15.13
2022-10-14T18:18:30.821Z,15.09
2022-10-14T18:20:37.067Z,15.07
2022-10-14T18:22:40.596Z,15.06
2022-10-14T18:24:43.960Z,15.06
2022-10-14T18:26:46.557Z,15.02
2022-10-14T18:28:51.081Z,15.02
2022-10-14T18:30:53.713Z,15.01
2022-10-14T18:32:57.893Z,14.96
2022-10-14T18:35:00.463Z,14.95
2022-10-14T18:37:04.572Z,14.93
2022-10-14T18:39:09.557Z,14.90
2022-10-14T18:41:14.618Z,14.89
2022-10-14T18:43:17.187Z,14.88
2022-10-14T18:45:19.737Z,14.89
2022-10-14T18:47:22.499Z,14.87
2022-10-14T18:49:25.058Z,14.85
2022-10-14T18:51:29.463Z,14.89
2022-10-14T18:53:34.686Z,14.87
2022-10-14T18:55:41.671Z,14.95
2022-10-14T18:57:44.402Z,14.92
2022-10-14T18:59:47.245Z,14.88
2022-10-14T19:01:55.538Z,14.88
2022-10-14T19:03:58.449Z,14.86
2022-10-14T19:06:01.832Z,14.81
2022-10-14T19:08:05.229Z,14.82
2022-10-14T19:10:10.265Z,14.81
2022-10-14T19:12:26.761Z,14.77
2022-10-14T19:14:31.711Z,14.76
2022-10-14T19:16:38.721Z,14.76
2022-10-14T19:18:41.781Z,14.77
2022-10-14T19:20:45.437Z,14.73
2022-10-14T19:22:48.113Z,14.77
2022-10-14T19:24:51.919Z,14.74
2022-10-14T19:26:56.976Z,14.73
2022-10-14T19:29:00.538Z,14.75
2022-10-14T19:31:06.248Z,14.72
2022-10-14T19:33:08.887Z,14.79
2022-10-14T19:35:11.590Z,14.81
2022-10-14T19:37:14.224Z,14.75
2022-10-14T19:39:19.071Z,14.80
2022-10-14T19:41:22.411Z,14.74
2022-10-14T19:43:26.419Z,14.71
2022-10-14T19:45:28.983Z,14.70
2022-10-14T19:47:31.557Z,14.72
2022-10-14T19:49:34.578Z,14.67
2022-10-14T19:51:37.244Z,14.67
2022-10-14T19:53:40.165Z,14.74
2022-10-14T19:55:43.197Z,14.73
2022-10-14T19:57:46.485Z,14.75
2022-10-14T19:59:50.950Z,14.69
2022-10-14T20:01:53.851Z,14.75
2022-10-14T20:03:57.974Z,14.72
2022-10-14T20:06:01.209Z,14.68
2022-10-14T20:08:04.111Z,14.66
2022-10-14T20:10:07.824Z,14.62
2022-10-14T20:12:10.836Z,14.73
2022-10-14T20:14:14.514Z,14.78
2022-10-14T20:16:21.172Z,14.79
2022-10-14T20:18:26.101Z,14.75
2022-10-14T20:20:29.580Z,14.73
2022-10-14T20:22:33.302Z,14.73
2022-10-14T20:24:39.894Z,14.73
2022-10-14T20:26:46.858Z,14.66
2022-10-14T20:28:50.447Z,14.71
2022-10-14T20:30:54.191Z,14.66
2022-10-14T20:32:58.104Z,14.66
2022-10-14T20:35:00.741Z,14.64
2022-10-14T20:37:03.960Z,14.64
2022-10-14T20:39:06.580Z,14.67
2022-10-14T20:41:12.968Z,14.68
2022-10-14T20:43:15.531Z,14.60
2022-10-14T20:45:18.188Z,14.69
2022-10-14T20:47:21.174Z,14.64
2022-10-14T20:49:25.394Z,14.66
2022-10-14T20:51:28.139Z,14.71
2022-10-14T20:53:31.077Z,14.73
2022-10-14T20:55:33.819Z,14.81
2022-10-14T20:57:36.674Z,14.72
2022-10-14T20:59:41.560Z,14.70
2022-10-14T21:01:44.200Z,14.68
2022-10-14T21:03:47.728Z,14.66
2022-10-14T21:05:52.109Z,14.65
2022-10-14T21:07:54.731Z,14.63
2022-10-14T21:09:57.353Z,14.71
2022-10-14T21:11:59.952Z,14.73
2022-10-14T21:14:02.535Z,14.73
2022-10-14T21:16:14.573Z,14.71
2022-10-14T21:18:17.220Z,14.81
2022-10-14T21:20:19.830Z,14.72
2022-10-14T21:22:24.088Z,14.73
2022-10-14T21:24:26.904Z,14.74
2022-10-14T21:26:30.846Z,14.74
2022-10-14T21:28:33.482Z,14.71
2022-10-14T21:30:36.232Z,14.70
2022-10-14T21:32:38.864Z,14.71
2022-10-14T21:34:41.452Z,14.70
2022-10-14T21:36:44.761Z,14.69
2022-10-14T21:38:48.770Z,14.75
2022-10-14T21:40:51.386Z,14.69
2022-10-14T21:42:53.972Z,14.68
2022-10-14T21:44:56.532Z,14.69
2022-10-14T21:46:59.100Z,14.68
2022-10-14T21:49:01.677Z,14.64
2022-10-14T21:51:05.452Z,14.63
2022-10-14T21:53:11.325Z,14.69
2022-10-14T21:55:17.988Z,14.65
2022-10-14T21:57:20.784Z,14.64
2022-10-14T21:59:23.555Z,14.63
2022-10-14T22:01:27.950Z,14.64
2022-10-14T22:03:30.986Z,14.65
2022-10-14T22:05:35.383Z,14.64
2022-10-14T22:07:37.966Z,14.65
2022-10-14T22:09:40.543Z,14.59
2022-10-14T22:11:44.695Z,14.62
2022-10-14T22:13:47.589Z,14.61
2022-10-14T22:15:50.364Z,14.63
2022-10-14T22:17:53.543Z,14.61
2022-10-14T22:19:56.183Z,14.58
2022-10-14T22:22:01.240Z,14.59
2022-10-14T22:24:04.538Z,14.57
2022-10-14T22:26:09.548Z,14.57
2022-10-14T22:28:13.470Z,14.55
2022-10-14T22:30:16.395Z,14.59
2022-10-14T22:32:18.986Z,14.59
2022-10-14T22:34:21.563Z,14.61
2022-10-14T22:36:27.888Z,14.58
2022-10-14T22:38:30.467Z,14.58
2022-10-14T22:40:34.581Z,14.57
2022-10-14T22:42:39.188Z,14.57
2022-10-14T22:44:46.397Z,14.58
2022-10-14T22:46:49.012Z,14.61
2022-10-14T22:48:55.980Z,14.61
2022-10-14T22:51:03.098Z,14.64
2022-10-14T22:53:05.711Z,14.63
2022-10-14T22:55:10.000Z,14.65
2022-10-14T22:57:12.613Z,14.66
2022-10-14T22:59:15.370Z,14.65
2022-10-14T23:01:21.219Z,14.66
2022-10-14T23:03:23.823Z,14.66
2022-10-14T23:05:26.399Z,14.64
2022-10-14T23:07:29.718Z,14.68
2022-10-14T23:09:32.401Z,14.67
2022-10-14T23:11:35.066Z,14.66
2022-10-14T23:13:37.646Z,14.65
2022-10-14T23:15:40.241Z,14.66
2022-10-14T23:17:44.165Z,14.64
2022-10-14T23:19:47.839Z,14.66
2022-10-14T23:21:50.407Z,14.66
2022-10-14T23:23:54.423Z,14.65
2022-10-14T23:25:57.038Z,14.67
2022-10-14T23:27:59.622Z,14.70
2022-10-14T23:30:02.213Z,14.70
2022-10-14T23:32:05.062Z,14.70
2022-10-14T23:34:12.229Z,14.70
2022-10-14T23:36:15.805Z,14.72
2022-10-14T23:38:18.470Z,14.73
2022-10-14T23:40:21.077Z,14.74
2022-10-14T23:42:23.782Z,14.77
2022-10-14T23:44:26.401Z,14.79
2022-10-14T23:46:28.968Z,14.77
2022-10-14T23:48:31.541Z,14.83
2022-10-14T23:50:35.497Z,14.79
2022-10-14T23:52:38.077Z,14.78
2022-10-14T23:54:40.773Z,14.76
2022-10-14T23:56:43.359Z,14.76
2022-10-14T23:58:45.941Z,14.76
